sensor_id;sensor_type;location;lat;lon;timestamp;pressure;altitude;pressure_sealevel;temperature;humidity
47785;BME280;35233;55.686;37.848;2023-07-29T00:00:52;98781.69;;;21.29;62.31
47785;BME280;35233;55.686;37.848;2023-07-29T00:03:18;98784.13;;;21.32;62.30
47785;BME280;35233;55.686;37.848;2023-07-29T00:05:43;98784.28;;;21.30;62.69
47785;BME280;35233;55.686;37.848;2023-07-29T00:08:09;98786.97;;;21.30;62.05
47785;BME280;35233;55.686;37.848;2023-07-29T00:10:37;98780.75;;;21.30;62.61
47785;BME280;35233;55.686;37.848;2023-07-29T00:13:04;98781.59;;;21.30;62.07
47785;BME280;35233;55.686;37.848;2023-07-29T00:15:29;98783.97;;;21.23;62.31
47785;BME280;35233;55.686;37.848;2023-07-29T00:17:56;98781.00;;;21.27;62.16
47785;BME280;35233;55.686;37.848;2023-07-29T00:20:22;98784.53;;;21.27;62.67
47785;BME280;35233;55.686;37.848;2023-07-29T00:22:48;98776.75;;;21.24;62.45
47785;BME280;35233;55.686;37.848;2023-07-29T00:25:15;98775.69;;;21.15;62.48
47785;BME280;35233;55.686;37.848;2023-07-29T00:27:42;98777.13;;;21.19;62.93
47785;BME280;35233;55.686;37.848;2023-07-29T00:30:07;98787.03;;;21.19;62.66
47785;BME280;35233;55.686;37.848;2023-07-29T00:32:34;98786.19;;;21.18;62.40
47785;BME280;35233;55.686;37.848;2023-07-29T00:35:00;98789.56;;;21.20;62.22
47785;BME280;35233;55.686;37.848;2023-07-29T00:37:27;98784.19;;;21.20;62.71
47785;BME280;35233;55.686;37.848;2023-07-29T00:39:53;98791.28;;;21.21;62.66
47785;BME280;35233;55.686;37.848;2023-07-29T00:42:18;98787.13;;;21.17;62.87
47785;BME280;35233;55.686;37.848;2023-07-29T00:44:44;98774.59;;;21.18;62.77
47785;BME280;35233;55.686;37.848;2023-07-29T00:47:11;98777.41;;;21.16;62.59
47785;BME280;35233;55.686;37.848;2023-07-29T00:49:36;98759.97;;;21.11;62.26
47785;BME280;35233;55.686;37.848;2023-07-29T00:52:02;98777.91;;;21.10;62.41
47785;BME280;35233;55.686;37.848;2023-07-29T00:54:28;98774.78;;;21.05;62.89
47785;BME280;35233;55.686;37.848;2023-07-29T00:56:54;98775.88;;;21.02;62.87
47785;BME280;35233;55.686;37.848;2023-07-29T00:59:19;98783.16;;;21.12;62.57
47785;BME280;35233;55.686;37.848;2023-07-29T01:01:45;98769.03;;;21.10;62.68
47785;BME280;35233;55.686;37.848;2023-07-29T01:04:10;98773.97;;;21.14;62.79
47785;BME280;35233;55.686;37.848;2023-07-29T01:06:53;98769.97;;;21.09;62.78
47785;BME280;35233;55.686;37.848;2023-07-29T01:12:28;98769.72;;;21.12;62.68
47785;BME280;35233;55.686;37.848;2023-07-29T01:15:13;98771.69;;;21.10;62.40
47785;BME280;35233;55.686;37.848;2023-07-29T01:17:53;98777.06;;;21.10;62.85
47785;BME280;35233;55.686;37.848;2023-07-29T01:20:20;98778.91;;;21.09;62.40
47785;BME280;35233;55.686;37.848;2023-07-29T01:22:46;98771.13;;;21.06;62.33
47785;BME280;35233;55.686;37.848;2023-07-29T01:25:13;98772.66;;;21.09;62.83
47785;BME280;35233;55.686;37.848;2023-07-29T01:27:39;98769.13;;;21.08;62.38
47785;BME280;35233;55.686;37.848;2023-07-29T01:30:06;98762.06;;;21.07;62.56
47785;BME280;35233;55.686;37.848;2023-07-29T01:32:43;98753.16;;;21.07;62.72
47785;BME280;35233;55.686;37.848;2023-07-29T01:35:21;98745.97;;;21.07;62.43
47785;BME280;35233;55.686;37.848;2023-07-29T01:37:52;98732.91;;;21.02;62.35
47785;BME280;35233;55.686;37.848;2023-07-29T01:40:25;98740.84;;;21.04;62.61
47785;BME280;35233;55.686;37.848;2023-07-29T01:42:51;98735.56;;;20.93;62.86
47785;BME280;35233;55.686;37.848;2023-07-29T01:45:17;98736.72;;;21.00;62.90
47785;BME280;35233;55.686;37.848;2023-07-29T01:47:43;98736.00;;;20.98;62.58
47785;BME280;35233;55.686;37.848;2023-07-29T01:50:08;98721.03;;;20.95;62.28
47785;BME280;35233;55.686;37.848;2023-07-29T01:52:34;98713.09;;;20.94;62.73
47785;BME280;35233;55.686;37.848;2023-07-29T01:55:00;98715.50;;;20.76;63.01
47785;BME280;35233;55.686;37.848;2023-07-29T01:57:26;98731.88;;;20.94;62.69
47785;BME280;35233;55.686;37.848;2023-07-29T01:59:51;98738.25;;;20.93;62.78
47785;BME280;35233;55.686;37.848;2023-07-29T02:02:17;98738.81;;;20.96;62.76
47785;BME280;35233;55.686;37.848;2023-07-29T02:04:42;98740.81;;;20.94;62.29
47785;BME280;35233;55.686;37.848;2023-07-29T02:07:08;98745.44;;;20.92;62.64
47785;BME280;35233;55.686;37.848;2023-07-29T02:09:33;98755.06;;;20.95;62.49
47785;BME280;35233;55.686;37.848;2023-07-29T02:11:59;98753.50;;;20.92;62.41
47785;BME280;35233;55.686;37.848;2023-07-29T02:14:24;98772.03;;;20.95;62.66
47785;BME280;35233;55.686;37.848;2023-07-29T02:16:50;98765.34;;;20.90;62.91
47785;BME280;35233;55.686;37.848;2023-07-29T02:19:15;98777.19;;;20.87;62.38
47785;BME280;35233;55.686;37.848;2023-07-29T02:21:41;98773.25;;;20.91;62.97
47785;BME280;35233;55.686;37.848;2023-07-29T02:24:06;98770.72;;;20.90;62.59
47785;BME280;35233;55.686;37.848;2023-07-29T02:26:32;98765.63;;;20.87;62.84
47785;BME280;35233;55.686;37.848;2023-07-29T02:28:57;98763.66;;;20.89;62.54
47785;BME280;35233;55.686;37.848;2023-07-29T02:31:24;98761.03;;;20.77;62.87
47785;BME280;35233;55.686;37.848;2023-07-29T02:33:51;98755.41;;;20.80;63.01
47785;BME280;35233;55.686;37.848;2023-07-29T02:36:16;98768.16;;;20.88;62.67
47785;BME280;35233;55.686;37.848;2023-07-29T02:38:42;98774.41;;;20.89;62.61
47785;BME280;35233;55.686;37.848;2023-07-29T02:41:09;98789.63;;;20.88;62.54
47785;BME280;35233;55.686;37.848;2023-07-29T02:43:35;98775.16;;;20.79;62.37
47785;BME280;35233;55.686;37.848;2023-07-29T02:46:02;98800.38;;;20.88;62.70
47785;BME280;35233;55.686;37.848;2023-07-29T02:48:28;98796.00;;;20.87;62.28
47785;BME280;35233;55.686;37.848;2023-07-29T02:50:54;98801.50;;;20.86;62.68
47785;BME280;35233;55.686;37.848;2023-07-29T02:53:19;98794.16;;;20.88;62.70
47785;BME280;35233;55.686;37.848;2023-07-29T02:55:45;98785.97;;;20.89;62.77
47785;BME280;35233;55.686;37.848;2023-07-29T02:58:10;98788.09;;;20.86;62.79
47785;BME280;35233;55.686;37.848;2023-07-29T03:00:36;98780.13;;;20.84;62.29
47785;BME280;35233;55.686;37.848;2023-07-29T03:03:01;98772.81;;;20.86;62.37
47785;BME280;35233;55.686;37.848;2023-07-29T03:05:27;98764.16;;;20.83;62.59
47785;BME280;35233;55.686;37.848;2023-07-29T03:07:53;98753.28;;;20.84;62.86
47785;BME280;35233;55.686;37.848;2023-07-29T03:10:19;98755.59;;;20.89;62.51
47785;BME280;35233;55.686;37.848;2023-07-29T03:12:45;98752.31;;;20.85;62.44
47785;BME280;35233;55.686;37.848;2023-07-29T03:15:11;98742.44;;;20.86;62.97
47785;BME280;35233;55.686;37.848;2023-07-29T03:17:37;98734.63;;;20.83;62.88
47785;BME280;35233;55.686;37.848;2023-07-29T03:20:04;98731.63;;;20.76;62.42
47785;BME280;35233;55.686;37.848;2023-07-29T03:22:29;98730.78;;;20.75;62.54
47785;BME280;35233;55.686;37.848;2023-07-29T03:24:55;98730.50;;;20.78;62.45
47785;BME280;35233;55.686;37.848;2023-07-29T03:27:20;98736.09;;;20.87;62.73
47785;BME280;35233;55.686;37.848;2023-07-29T03:29:46;98727.88;;;20.88;62.50
47785;BME280;35233;55.686;37.848;2023-07-29T03:32:11;98727.88;;;20.88;62.74
47785;BME280;35233;55.686;37.848;2023-07-29T03:34:37;98720.09;;;20.85;62.48
47785;BME280;35233;55.686;37.848;2023-07-29T03:37:03;98727.88;;;20.88;62.15
47785;BME280;35233;55.686;37.848;2023-07-29T03:39:29;98718.13;;;20.87;62.35
47785;BME280;35233;55.686;37.848;2023-07-29T03:41:54;98711.91;;;20.87;62.12
47785;BME280;35233;55.686;37.848;2023-07-29T03:44:20;98713.50;;;20.89;62.18
47785;BME280;35233;55.686;37.848;2023-07-29T03:46:45;98712.50;;;20.90;62.42
47785;BME280;35233;55.686;37.848;2023-07-29T03:49:11;98711.38;;;20.93;62.33
47785;BME280;35233;55.686;37.848;2023-07-29T03:51:36;98705.28;;;20.91;61.92
47785;BME280;35233;55.686;37.848;2023-07-29T03:54:02;98702.34;;;20.94;62.43
47785;BME280;35233;55.686;37.848;2023-07-29T03:56:27;98686.06;;;20.86;62.47
47785;BME280;35233;55.686;37.848;2023-07-29T03:58:53;98695.28;;;20.93;62.25
47785;BME280;35233;55.686;37.848;2023-07-29T04:01:19;98703.72;;;20.88;62.48
47785;BME280;35233;55.686;37.848;2023-07-29T04:03:45;98697.50;;;20.88;62.09
47785;BME280;35233;55.686;37.848;2023-07-29T04:06:11;98705.44;;;20.89;62.14
47785;BME280;35233;55.686;37.848;2023-07-29T04:08:37;98700.19;;;20.88;62.25
47785;BME280;35233;55.686;37.848;2023-07-29T04:11:02;98701.19;;;20.87;61.95
47785;BME280;35233;55.686;37.848;2023-07-29T04:13:28;98693.84;;;20.89;62.56
47785;BME280;35233;55.686;37.848;2023-07-29T04:15:53;98695.53;;;20.90;62.46
47785;BME280;35233;55.686;37.848;2023-07-29T04:18:19;98679.13;;;20.83;62.13
47785;BME280;35233;55.686;37.848;2023-07-29T04:20:44;98687.34;;;20.91;62.34
47785;BME280;35233;55.686;37.848;2023-07-29T04:23:10;98694.56;;;20.91;62.42
47785;BME280;35233;55.686;37.848;2023-07-29T04:25:35;98690.19;;;20.90;61.79
47785;BME280;35233;55.686;37.848;2023-07-29T04:28:01;98692.97;;;20.88;62.21
47785;BME280;35233;55.686;37.848;2023-07-29T04:30:28;98699.50;;;20.86;61.95
47785;BME280;35233;55.686;37.848;2023-07-29T04:32:54;98694.13;;;20.86;61.92
47785;BME280;35233;55.686;37.848;2023-07-29T04:35:19;98684.09;;;20.88;61.94
47785;BME280;35233;55.686;37.848;2023-07-29T04:37:45;98673.59;;;20.85;62.17
47785;BME280;35233;55.686;37.848;2023-07-29T04:40:13;98668.25;;;20.85;62.14
47785;BME280;35233;55.686;37.848;2023-07-29T04:42:38;98664.59;;;20.86;62.16
47785;BME280;35233;55.686;37.848;2023-07-29T04:45:05;98658.81;;;20.90;61.72
47785;BME280;35233;55.686;37.848;2023-07-29T04:47:30;98667.13;;;20.87;61.89
47785;BME280;35233;55.686;37.848;2023-07-29T04:49:56;98659.22;;;20.86;62.16
47785;BME280;35233;55.686;37.848;2023-07-29T04:52:21;98660.06;;;20.86;61.95
47785;BME280;35233;55.686;37.848;2023-07-29T04:54:47;98650.63;;;20.92;61.61
47785;BME280;35233;55.686;37.848;2023-07-29T04:57:12;98640.28;;;20.87;61.75
47785;BME280;35233;55.686;37.848;2023-07-29T04:59:38;98651.16;;;20.86;62.02
47785;BME280;35233;55.686;37.848;2023-07-29T05:02:03;98637.91;;;20.94;61.82
47785;BME280;35233;55.686;37.848;2023-07-29T05:04:29;98634.00;;;20.98;61.75
47785;BME280;35233;55.686;37.848;2023-07-29T05:06:54;98626.91;;;20.97;62.07
47785;BME280;35233;55.686;37.848;2023-07-29T05:09:20;98625.47;;;20.93;61.82
47785;BME280;35233;55.686;37.848;2023-07-29T05:11:46;98635.56;;;21.00;61.73
47785;BME280;35233;55.686;37.848;2023-07-29T05:14:16;98637.25;;;21.01;61.40
47785;BME280;35233;55.686;37.848;2023-07-29T05:16:42;98638.66;;;21.06;61.53
47785;BME280;35233;55.686;37.848;2023-07-29T05:19:08;98642.91;;;21.08;61.72
47785;BME280;35233;55.686;37.848;2023-07-29T05:21:33;98637.38;;;21.00;61.51
47785;BME280;35233;55.686;37.848;2023-07-29T05:23:59;98650.66;;;21.01;61.88
47785;BME280;35233;55.686;37.848;2023-07-29T05:26:24;98652.09;;;21.06;61.80
47785;BME280;35233;55.686;37.848;2023-07-29T05:28:50;98652.97;;;21.06;61.74
47785;BME280;35233;55.686;37.848;2023-07-29T05:31:16;98664.09;;;21.01;61.74
47785;BME280;35233;55.686;37.848;2023-07-29T05:33:41;98671.31;;;21.01;61.81
47785;BME280;35233;55.686;37.848;2023-07-29T05:36:07;98663.91;;;20.93;61.88
47785;BME280;35233;55.686;37.848;2023-07-29T05:38:32;98673.25;;;20.99;61.29
47785;BME280;35233;55.686;37.848;2023-07-29T05:40:58;98675.09;;;20.98;61.92
47785;BME280;35233;55.686;37.848;2023-07-29T05:43:27;98669.00;;;20.96;61.55
47785;BME280;35233;55.686;37.848;2023-07-29T05:45:53;98665.38;;;20.97;61.84
47785;BME280;35233;55.686;37.848;2023-07-29T05:48:19;98675.38;;;20.95;61.68
47785;BME280;35233;55.686;37.848;2023-07-29T05:50:45;98681.91;;;21.02;61.61
47785;BME280;35233;55.686;37.848;2023-07-29T05:53:11;98675.84;;;21.00;61.51
47785;BME280;35233;55.686;37.848;2023-07-29T05:55:36;98682.88;;;21.01;61.79
47785;BME280;35233;55.686;37.848;2023-07-29T05:58:02;98679.38;;;21.01;61.26
47785;BME280;35233;55.686;37.848;2023-07-29T06:00:27;98678.38;;;21.02;61.10
47785;BME280;35233;55.686;37.848;2023-07-29T06:02:53;98682.06;;;21.01;61.47
47785;BME280;35233;55.686;37.848;2023-07-29T06:05:18;98696.31;;;21.01;61.28
47785;BME280;35233;55.686;37.848;2023-07-29T06:07:44;98696.31;;;21.01;61.51
47785;BME280;35233;55.686;37.848;2023-07-29T06:10:14;98691.06;;;21.00;61.21
47785;BME280;35233;55.686;37.848;2023-07-29T06:12:42;98693.47;;;21.03;61.68
47785;BME280;35233;55.686;37.848;2023-07-29T06:15:08;98699.84;;;21.02;61.35
47785;BME280;35233;55.686;37.848;2023-07-29T06:17:34;98699.84;;;21.02;61.44
47785;BME280;35233;55.686;37.848;2023-07-29T06:19:59;98694.75;;;20.99;61.43
47785;BME280;35233;55.686;37.848;2023-07-29T06:22:25;98696.44;;;21.00;61.87
47785;BME280;35233;55.686;37.848;2023-07-29T06:24:51;98705.94;;;21.04;61.22
47785;BME280;35233;55.686;37.848;2023-07-29T06:27:16;98708.06;;;21.00;61.47
47785;BME280;35233;55.686;37.848;2023-07-29T06:29:41;98712.28;;;21.03;61.73
47785;BME280;35233;55.686;37.848;2023-07-29T06:32:07;98724.28;;;20.99;61.71
47785;BME280;35233;55.686;37.848;2023-07-29T06:34:33;98723.56;;;20.97;61.81
47785;BME280;35233;55.686;37.848;2023-07-29T06:36:58;98732.59;;;20.96;61.83
47785;BME280;35233;55.686;37.848;2023-07-29T06:39:23;98731.75;;;20.95;61.53
47785;BME280;35233;55.686;37.848;2023-07-29T06:41:49;98726.50;;;20.94;61.93
47785;BME280;35233;55.686;37.848;2023-07-29T06:44:14;98729.19;;;20.94;61.79
47785;BME280;35233;55.686;37.848;2023-07-29T06:46:40;98723.13;;;20.92;61.79
47785;BME280;35233;55.686;37.848;2023-07-29T06:49:06;98718.88;;;20.89;62.09
47785;BME280;35233;55.686;37.848;2023-07-29T06:51:31;98719.19;;;20.96;61.51
47785;BME280;35233;55.686;37.848;2023-07-29T06:54:00;98721.13;;;20.94;61.77
47785;BME280;35233;55.686;37.848;2023-07-29T06:56:25;98718.03;;;20.89;61.88
47785;BME280;35233;55.686;37.848;2023-07-29T06:58:51;98716.50;;;20.96;61.99
47785;BME280;35233;55.686;37.848;2023-07-29T07:01:16;98718.34;;;20.95;62.08
47785;BME280;35233;55.686;37.848;2023-07-29T07:03:42;98719.19;;;20.96;61.46
47785;BME280;35233;55.686;37.848;2023-07-29T07:06:07;98717.91;;;21.00;61.44
47785;BME280;35233;55.686;37.848;2023-07-29T07:08:33;98706.75;;;20.95;61.44
47785;BME280;35233;55.686;37.848;2023-07-29T07:10:58;98718.34;;;20.95;61.82
47785;BME280;35233;55.686;37.848;2023-07-29T07:13:24;98722.72;;;20.96;62.09
47785;BME280;35233;55.686;37.848;2023-07-29T07:15:49;98713.34;;;20.91;61.81
47785;BME280;35233;55.686;37.848;2023-07-29T07:18:15;98722.44;;;20.99;61.57
47785;BME280;35233;55.686;37.848;2023-07-29T07:20:40;98719.19;;;20.96;61.82
47785;BME280;35233;55.686;37.848;2023-07-29T07:23:06;98715.19;;;20.90;62.24
47785;BME280;35233;55.686;37.848;2023-07-29T07:25:35;98716.28;;;20.88;62.09
47785;BME280;35233;55.686;37.848;2023-07-29T07:28:01;98720.81;;;20.87;61.87
47785;BME280;35233;55.686;37.848;2023-07-29T07:30:27;98729.72;;;20.88;61.63
47785;BME280;35233;55.686;37.848;2023-07-29T07:32:52;98734.25;;;20.87;61.84
47785;BME280;35233;55.686;37.848;2023-07-29T07:35:18;98732.66;;;20.85;62.23
47785;BME280;35233;55.686;37.848;2023-07-29T07:37:44;98730.25;;;20.82;61.86
47785;BME280;35233;55.686;37.848;2023-07-29T07:40:10;98719.44;;;20.72;62.50
47785;BME280;35233;55.686;37.848;2023-07-29T07:42:35;98724.16;;;20.79;62.14
47785;BME280;35233;55.686;37.848;2023-07-29T07:45:01;98739.28;;;20.80;62.45
47785;BME280;35233;55.686;37.848;2023-07-29T07:47:26;98733.66;;;20.84;62.00
47785;BME280;35233;55.686;37.848;2023-07-29T07:49:52;98732.09;;;20.81;62.38
47785;BME280;35233;55.686;37.848;2023-07-29T07:52:17;98729.66;;;20.78;62.47
47785;BME280;35233;55.686;37.848;2023-07-29T07:54:43;98738.44;;;20.80;62.20
47785;BME280;35233;55.686;37.848;2023-07-29T07:57:08;98739.56;;;20.77;61.95
47785;BME280;35233;55.686;37.848;2023-07-29T07:59:34;98740.41;;;20.78;62.14
47785;BME280;35233;55.686;37.848;2023-07-29T08:01:59;98735.81;;;20.69;62.80
47785;BME280;35233;55.686;37.848;2023-07-29T08:04:24;98735.41;;;20.73;62.14
47785;BME280;35233;55.686;37.848;2023-07-29T08:06:50;98730.44;;;20.69;62.51
47785;BME280;35233;55.686;37.848;2023-07-29T08:09:15;98746.03;;;20.75;62.14
47785;BME280;35233;55.686;37.848;2023-07-29T08:11:41;98735.41;;;20.73;62.27
47785;BME280;35233;55.686;37.848;2023-07-29T08:14:06;98752.50;;;20.72;62.27
47785;BME280;35233;55.686;37.848;2023-07-29T08:16:32;98744.06;;;20.77;62.04
47785;BME280;35233;55.686;37.848;2023-07-29T08:18:57;98748.44;;;20.78;62.36
47785;BME280;35233;55.686;37.848;2023-07-29T08:21:23;98747.88;;;20.74;62.05
47785;BME280;35233;55.686;37.848;2023-07-29T08:23:48;98756.50;;;20.78;62.48
47785;BME280;35233;55.686;37.848;2023-07-29T08:26:14;98752.97;;;20.77;62.39
47785;BME280;35233;55.686;37.848;2023-07-29T08:28:40;98758.34;;;20.77;62.50
47785;BME280;35233;55.686;37.848;2023-07-29T08:31:06;98750.03;;;20.80;62.04
47785;BME280;35233;55.686;37.848;2023-07-29T08:33:32;98748.31;;;20.79;62.42
47785;BME280;35233;55.686;37.848;2023-07-29T08:36:02;98746.94;;;20.85;62.42
47785;BME280;35233;55.686;37.848;2023-07-29T08:38:27;98749.75;;;20.84;62.27
47785;BME280;35233;55.686;37.848;2023-07-29T08:41:14;98752.66;;;20.92;61.67
47785;BME280;35233;55.686;37.848;2023-07-29T08:46:36;98755.34;;;20.92;61.88
47785;BME280;35233;55.686;37.848;2023-07-29T08:49:02;98753.75;;;20.89;61.90
47785;BME280;35233;55.686;37.848;2023-07-29T08:51:29;98753.50;;;20.92;61.73
47785;BME280;35233;55.686;37.848;2023-07-29T08:53:55;98745.56;;;20.91;62.08
47785;BME280;35233;55.686;37.848;2023-07-29T08:56:21;98750.09;;;20.90;61.88
47785;BME280;35233;55.686;37.848;2023-07-29T08:58:47;98763.13;;;20.95;62.01
47785;BME280;35233;55.686;37.848;2023-07-29T09:01:14;98761.16;;;20.97;62.02
47785;BME280;35233;55.686;37.848;2023-07-29T09:03:41;98759.78;;;21.02;61.66
47785;BME280;35233;55.686;37.848;2023-07-29T09:06:07;98756.97;;;21.04;61.40
47785;BME280;35233;55.686;37.848;2023-07-29T09:08:33;98771.25;;;21.05;61.41
47785;BME280;35233;55.686;37.848;2023-07-29T09:10:59;98767.19;;;21.10;61.41
47785;BME280;35233;55.686;37.848;2023-07-29T09:13:25;98776.34;;;21.08;61.43
47785;BME280;35233;55.686;37.848;2023-07-29T09:15:54;98768.94;;;21.00;61.73
47785;BME280;35233;55.686;37.848;2023-07-29T09:18:21;98766.25;;;21.00;62.00
47785;BME280;35233;55.686;37.848;2023-07-29T09:20:48;98764.03;;;21.05;61.73
47785;BME280;35233;55.686;37.848;2023-07-29T09:23:14;98769.41;;;21.05;61.68
47785;BME280;35233;55.686;37.848;2023-07-29T09:25:40;98765.75;;;21.06;61.52
47785;BME280;35233;55.686;37.848;2023-07-29T09:28:10;98757.44;;;21.09;61.54
47785;BME280;35233;55.686;37.848;2023-07-29T09:30:41;98761.44;;;21.15;61.06
47785;BME280;35233;55.686;37.848;2023-07-29T09:33:08;98757.88;;;21.14;61.35
47785;BME280;35233;55.686;37.848;2023-07-29T09:35:35;98767.19;;;21.10;61.25
47785;BME280;35233;55.686;37.848;2023-07-29T09:38:03;98763.19;;;21.05;61.52
47785;BME280;35233;55.686;37.848;2023-07-29T09:40:37;98763.06;;;21.06;61.67
47785;BME280;35233;55.686;37.848;2023-07-29T09:43:03;98769.81;;;21.00;61.96
47785;BME280;35233;55.686;37.848;2023-07-29T09:45:29;98772.34;;;21.02;61.78
47785;BME280;35233;55.686;37.848;2023-07-29T09:47:57;98773.47;;;20.99;61.73
47785;BME280;35233;55.686;37.848;2023-07-29T09:50:23;98762.59;;;21.01;61.43
47785;BME280;35233;55.686;37.848;2023-07-29T09:52:51;98771.63;;;21.00;61.56
47785;BME280;35233;55.686;37.848;2023-07-29T09:55:18;98767.13;;;21.00;61.36
47785;BME280;35233;55.686;37.848;2023-07-29T09:57:44;98766.88;;;21.03;61.50
47785;BME280;35233;55.686;37.848;2023-07-29T10:00:12;98775.50;;;21.07;61.75
47785;BME280;35233;55.686;37.848;2023-07-29T10:02:42;98770.25;;;21.06;61.37
47785;BME280;35233;55.686;37.848;2023-07-29T10:05:08;98773.34;;;21.01;61.83
47785;BME280;35233;55.686;37.848;2023-07-29T10:07:36;98765.28;;;21.01;61.85
47785;BME280;35233;55.686;37.848;2023-07-29T10:10:04;98775.31;;;20.99;61.97
47785;BME280;35233;55.686;37.848;2023-07-29T10:12:33;98768.50;;;20.95;61.67
47785;BME280;35233;55.686;37.848;2023-07-29T10:15:06;98770.91;;;20.98;61.58
47785;BME280;35233;55.686;37.848;2023-07-29T10:17:36;98762.59;;;21.01;62.04
47785;BME280;35233;55.686;37.848;2023-07-29T10:20:07;98769.94;;;20.99;61.81
47785;BME280;35233;55.686;37.848;2023-07-29T10:22:39;98767.66;;;20.94;62.24
47785;BME280;35233;55.686;37.848;2023-07-29T10:25:09;98767.78;;;20.93;62.14
47785;BME280;35233;55.686;37.848;2023-07-29T10:27:43;98773.88;;;20.95;61.89
47785;BME280;35233;55.686;37.848;2023-07-29T10:30:11;98781.56;;;20.88;62.38
47785;BME280;35233;55.686;37.848;2023-07-29T10:32:38;98772.81;;;20.86;62.35
47785;BME280;35233;55.686;37.848;2023-07-29T10:35:04;98777.06;;;20.89;62.44
47785;BME280;35233;55.686;37.848;2023-07-29T10:37:30;98776.94;;;20.90;61.92
47785;BME280;35233;55.686;37.848;2023-07-29T10:39:56;98786.69;;;20.91;61.88
47785;BME280;35233;55.686;37.848;2023-07-29T10:42:22;98782.31;;;20.90;62.17
47785;BME280;35233;55.686;37.848;2023-07-29T10:44:49;98777.53;;;20.94;61.87
47785;BME280;35233;55.686;37.848;2023-07-29T10:47:15;98780.41;;;21.02;62.14
47785;BME280;35233;55.686;37.848;2023-07-29T10:49:45;98785.78;;;21.02;61.76
47785;BME280;35233;55.686;37.848;2023-07-29T10:52:15;98783.41;;;21.09;61.34
47785;BME280;35233;55.686;37.848;2023-07-29T10:54:43;98785.13;;;21.10;61.38
47785;BME280;35233;55.686;37.848;2023-07-29T10:57:15;98788.41;;;21.13;61.75
47785;BME280;35233;55.686;37.848;2023-07-29T10:59:54;98777.91;;;21.10;61.37
47785;BME280;35233;55.686;37.848;2023-07-29T11:02:35;98782.44;;;21.10;61.89
47785;BME280;35233;55.686;37.848;2023-07-29T11:05:15;98780.34;;;21.13;61.32
47785;BME280;35233;55.686;37.848;2023-07-29T11:07:46;98783.75;;;21.15;61.82
47785;BME280;35233;55.686;37.848;2023-07-29T11:10:13;98779.34;;;21.14;61.80
47785;BME280;35233;55.686;37.848;2023-07-29T11:12:42;98783.88;;;21.14;61.39
47785;BME280;35233;55.686;37.848;2023-07-29T11:17:53;98774.59;;;21.18;61.10
47785;BME280;35233;55.686;37.848;2023-07-29T11:20:24;98772.28;;;21.13;61.85
47785;BME280;35233;55.686;37.848;2023-07-29T11:22:52;98779.03;;;21.08;61.61
47785;BME280;35233;55.686;37.848;2023-07-29T11:25:18;98783.16;;;21.12;61.83
47785;BME280;35233;55.686;37.848;2023-07-29T11:27:44;98781.13;;;21.04;61.56
47785;BME280;35233;55.686;37.848;2023-07-29T11:30:12;98786.72;;;21.12;61.47
47785;BME280;35233;55.686;37.848;2023-07-29T11:32:40;98794.88;;;21.11;61.69
47785;BME280;35233;55.686;37.848;2023-07-29T11:35:13;98796.47;;;21.13;61.71
47785;BME280;35233;55.686;37.848;2023-07-29T11:37:40;98799.59;;;21.18;61.23
47785;BME280;35233;55.686;37.848;2023-07-29T11:40:07;98806.81;;;21.18;61.50
47785;BME280;35233;55.686;37.848;2023-07-29T11:42:36;98801.03;;;21.22;61.30
47785;BME280;35233;55.686;37.848;2023-07-29T11:45:02;98804.97;;;21.18;61.61
47785;BME280;35233;55.686;37.848;2023-07-29T11:47:29;98814.16;;;21.16;61.47
47785;BME280;35233;55.686;37.848;2023-07-29T11:49:58;98818.41;;;21.18;61.59
47785;BME280;35233;55.686;37.848;2023-07-29T11:52:24;98810.63;;;21.15;61.82
47785;BME280;35233;55.686;37.848;2023-07-29T11:54:50;98818.66;;;21.15;61.62
47785;BME280;35233;55.686;37.848;2023-07-29T11:57:16;98817.81;;;21.15;62.02
47785;BME280;35233;55.686;37.848;2023-07-29T11:59:43;98822.47;;;21.13;61.83
47785;BME280;35233;55.686;37.848;2023-07-29T12:02:15;98822.47;;;21.13;61.62
47785;BME280;35233;55.686;37.848;2023-07-29T12:04:43;98819.06;;;21.11;61.70
47785;BME280;35233;55.686;37.848;2023-07-29T12:07:10;98813.56;;;21.12;61.71
47785;BME280;35233;55.686;37.848;2023-07-29T12:09:37;98811.84;;;21.11;61.57
47785;BME280;35233;55.686;37.848;2023-07-29T12:12:04;98817.94;;;21.13;61.56
47785;BME280;35233;55.686;37.848;2023-07-29T12:14:31;98824.91;;;21.16;61.62
47785;BME280;35233;55.686;37.848;2023-07-29T12:17:00;98820.84;;;21.21;61.73
47785;BME280;35233;55.686;37.848;2023-07-29T12:19:34;98817.81;;;21.15;61.62
47785;BME280;35233;55.686;37.848;2023-07-29T12:22:02;98828.63;;;21.24;61.21
47785;BME280;35233;55.686;37.848;2023-07-29T12:24:33;98832.81;;;21.17;61.68
47785;BME280;35233;55.686;37.848;2023-07-29T12:27:00;98829.28;;;21.17;61.81
47785;BME280;35233;55.686;37.848;2023-07-29T12:29:26;98819.78;;;21.13;61.79
47785;BME280;35233;55.686;37.848;2023-07-29T12:32:00;98817.41;;;21.19;61.44
47785;BME280;35233;55.686;37.848;2023-07-29T12:34:27;98826.06;;;21.23;61.76
47785;BME280;35233;55.686;37.848;2023-07-29T12:36:53;98818.66;;;21.15;61.81
47785;BME280;35233;55.686;37.848;2023-07-29T12:39:32;98820.25;;;21.18;61.95
47785;BME280;35233;55.686;37.848;2023-07-29T12:41:59;98813.03;;;21.18;61.84
47785;BME280;35233;55.686;37.848;2023-07-29T12:44:30;98814.88;;;21.18;61.57
47785;BME280;35233;55.686;37.848;2023-07-29T12:46:56;98802.50;;;21.27;61.42
47785;BME280;35233;55.686;37.848;2023-07-29T12:49:22;98793.81;;;21.23;61.37
47785;BME280;35233;55.686;37.848;2023-07-29T12:51:48;98811.41;;;21.27;61.71
47785;BME280;35233;55.686;37.848;2023-07-29T12:54:13;98803.19;;;21.29;61.60
47785;BME280;35233;55.686;37.848;2023-07-29T12:56:39;98815.50;;;21.31;61.59